Time;durP1;ratioP1;P1;durP2;ratioP2;P2;SDS_P1;SDS_P2;PMS_P1;PMS_P2;Temp;Humidity;BMP_temperature;BMP_pressure;BME280_temperature;BME280_humidity;BME280_pressure;Samples;Min_cycle;Max_cycle;Signal;HPM_P1;HPM_P2
2022/09/01 00:01:44;;;;;;;7.70;3.13;;;13.60;99.90;;;;;;5080216;28;20120;-72
2022/09/01 00:04:14;;;;;;;5.65;2.67;;;13.70;99.90;;;;;;5079800;28;20138;-72
2022/09/01 00:06:41;;;;;;;6.25;2.45;;;13.70;99.90;;;;;;5083903;28;20341;-72
2022/09/01 00:09:12;;;;;;;2.75;2.20;;;13.60;99.90;;;;;;5085113;28;20045;-73
2022/09/01 00:11:40;;;;;;;4.00;2.13;;;13.60;99.90;;;;;;5084505;28;20052;-73
2022/09/01 00:14:08;;;;;;;3.42;2.72;;;13.50;99.90;;;;;;5084644;28;20430;-73
2022/09/01 00:16:34;;;;;;;3.00;2.20;;;13.50;99.90;;;;;;5084737;28;20056;-72
2022/09/01 00:19:00;;;;;;;2.15;1.90;;;13.50;99.90;;;;;;5084181;28;20139;-72
2022/09/01 00:21:37;;;;;;;3.70;2.03;;;13.50;99.90;;;;;;5082468;28;20036;-73
2022/09/01 00:24:04;;;;;;;3.05;1.85;;;13.40;99.90;;;;;;5084661;28;20037;-73
2022/09/01 00:26:30;;;;;;;3.00;2.08;;;13.40;99.90;;;;;;5083369;28;20055;-73
2022/09/01 00:28:56;;;;;;;5.40;2.10;;;13.40;99.90;;;;;;5084590;28;20044;-73
2022/09/01 00:31:22;;;;;;;2.63;2.10;;;13.20;99.90;;;;;;5098972;28;20183;-72
2022/09/01 00:33:49;;;;;;;3.15;1.80;;;13.20;99.90;;;;;;5083601;28;20056;-73
2022/09/01 00:36:16;;;;;;;3.65;2.28;;;13.10;99.90;;;;;;5100016;28;20127;-72
2022/09/01 00:38:42;;;;;;;4.28;1.90;;;12.80;99.90;;;;;;5082398;28;20036;-73
2022/09/01 00:41:08;;;;;;;3.35;2.00;;;12.90;99.90;;;;;;5083119;28;20112;-73
2022/09/01 00:43:49;;;;;;;2.10;1.80;;;12.80;99.90;;;;;;5083439;28;20051;-72
2022/09/01 00:46:20;;;;;;;3.38;1.92;;;12.60;99.90;;;;;;5081036;28;20036;-73
2022/09/01 00:49:00;;;;;;;3.30;1.42;;;12.50;99.90;;;;;;5083225;28;20113;-73
2022/09/01 00:51:27;;;;;;;2.90;1.92;;;12.40;99.90;;;;;;5082411;28;20060;-72
2022/09/01 00:53:54;;;;;;;2.42;1.60;;;12.50;99.90;;;;;;5066162;28;20066;-72
2022/09/01 00:56:22;;;;;;;2.45;1.60;;;12.40;99.90;;;;;;5082936;28;20094;-73
2022/09/01 00:58:48;;;;;;;2.13;1.58;;;12.20;99.90;;;;;;5077551;28;20515;-73
2022/09/01 01:01:14;;;;;;;2.78;1.80;;;12.20;99.90;;;;;;5083021;28;20063;-73
2022/09/01 01:03:45;;;;;;;2.10;1.80;;;12.20;99.90;;;;;;5083257;28;20045;-73
2022/09/01 01:06:15;;;;;;;7.88;2.10;;;12.10;99.90;;;;;;5082756;28;20063;-72
2022/09/01 01:08:50;;;;;;;2.72;1.75;;;12.20;99.90;;;;;;5072462;28;20072;-72
2022/09/01 01:11:16;;;;;;;3.85;1.60;;;12.20;99.90;;;;;;5072045;28;20071;-72
2022/09/01 01:14:11;;;;;;;5.60;1.67;;;12.20;99.90;;;;;;5066442;28;20036;-73
2022/09/01 01:16:45;;;;;;;3.60;2.10;;;12.20;99.90;;;;;;5063498;28;20052;-73
2022/09/01 01:23:01;;;;;;;2.42;1.80;;;11.90;99.90;;;;;;5062651;28;20043;-73
2022/09/01 01:25:28;;;;;;;3.53;1.70;;;11.80;99.90;;;;;;5068413;28;20070;-73
2022/09/01 01:28:30;;;;;;;3.97;2.10;;;11.90;99.90;;;;;;5065625;28;20095;-72
2022/09/01 01:31:04;;;;;;;3.55;1.90;;;12.00;99.90;;;;;;5083042;28;20102;-73
2022/09/01 01:33:44;;;;;;;3.00;2.33;;;12.00;99.90;;;;;;5085444;28;20075;-73
2022/09/01 01:36:14;;;;;;;4.55;1.90;;;12.10;99.90;;;;;;5066144;28;20044;-72
2022/09/01 01:38:42;;;;;;;3.15;1.83;;;12.10;99.90;;;;;;5082557;28;20060;-72
2022/09/01 01:41:13;;;;;;;2.78;2.15;;;12.20;99.90;;;;;;5084076;28;20588;-73
2022/09/01 01:43:40;;;;;;;2.33;1.60;;;12.20;99.90;;;;;;5064710;28;20108;-73
2022/09/01 01:46:08;;;;;;;3.03;2.03;;;12.10;99.90;;;;;;5069810;28;20290;-72
2022/09/01 01:48:36;;;;;;;4.55;1.98;;;12.00;99.90;;;;;;5072515;28;20051;-73
2022/09/01 01:51:03;;;;;;;2.22;2.00;;;11.90;99.90;;;;;;5083551;28;20041;-73
2022/09/01 01:53:31;;;;;;;2.67;2.47;;;11.80;99.90;;;;;;5085206;28;20493;-72
2022/09/01 01:55:58;;;;;;;3.50;2.40;;;11.60;99.90;;;;;;5083861;28;20037;-73
2022/09/01 01:58:25;;;;;;;3.80;2.58;;;11.70;99.90;;;;;;5083498;28;20087;-73
2022/09/01 02:00:53;;;;;;;3.25;2.15;;;11.60;99.90;;;;;;5065375;28;20112;-73
2022/09/01 02:03:23;;;;;;;2.42;2.13;;;11.60;99.90;;;;;;5064970;28;20051;-72
2022/09/01 02:05:51;;;;;;;3.58;2.40;;;11.50;99.90;;;;;;5064912;28;20083;-72
2022/09/01 02:08:19;;;;;;;2.42;2.22;;;11.40;99.90;;;;;;5071298;28;20048;-73
2022/09/01 02:10:47;;;;;;;2.40;2.20;;;11.50;99.90;;;;;;5087071;28;20051;-72
2022/09/01 02:13:15;;;;;;;4.63;2.53;;;11.50;99.90;;;;;;5082757;28;20041;-72
2022/09/01 02:15:45;;;;;;;4.30;2.70;;;11.40;99.90;;;;;;5069323;28;20063;-72
2022/09/01 02:18:23;;;;;;;;;;;11.30;99.90;;;;;;5066693;28;20135;-72
2022/09/01 02:20:51;;;;;;;4.13;2.55;;;11.30;99.90;;;;;;5083357;28;19967;-72
2022/09/01 02:23:23;;;;;;;3.30;2.33;;;11.20;99.90;;;;;;5068826;28;20072;-72
2022/09/01 02:25:54;;;;;;;3.83;2.55;;;11.30;99.90;;;;;;5068759;28;20048;-72
2022/09/01 02:28:21;;;;;;;4.10;2.70;;;11.40;99.90;;;;;;5067974;28;20069;-72
2022/09/01 02:30:53;;;;;;;3.47;2.65;;;11.50;99.90;;;;;;5080957;28;20059;-72
2022/09/01 02:33:20;;;;;;;3.38;2.55;;;11.70;99.90;;;;;;5047399;28;20386;-72
2022/09/01 02:35:53;;;;;;;2.10;1.90;;;11.60;99.90;;;;;;5063722;28;20048;-72
2022/09/01 02:38:22;;;;;;;3.53;2.47;;;11.60;99.90;;;;;;5067551;28;20504;-72
2022/09/01 02:40:48;;;;;;;2.70;2.30;;;11.60;99.90;;;;;;5082057;28;20071;-72
2022/09/01 02:43:19;;;;;;;4.40;2.75;;;11.60;99.90;;;;;;5064446;28;20480;-72
2022/09/01 02:45:54;;;;;;;3.80;2.53;;;11.60;99.90;;;;;;5083030;28;20064;-72
2022/09/01 02:48:23;;;;;;;3.90;2.47;;;11.60;99.90;;;;;;5085258;28;20044;-72
2022/09/01 02:50:49;;;;;;;3.20;2.70;;;11.60;99.90;;;;;;5070124;28;20057;-72
2022/09/01 02:53:15;;;;;;;4.05;2.42;;;11.60;99.90;;;;;;5080874;28;20119;-72
2022/09/01 02:55:42;;;;;;;2.40;2.20;;;11.60;99.90;;;;;;5069609;28;20186;-72
2022/09/01 02:58:15;;;;;;;4.18;2.42;;;11.60;99.90;;;;;;5070793;28;20047;-72
2022/09/01 03:00:44;;;;;;;4.13;2.55;;;11.60;99.90;;;;;;5068194;28;20113;-72
2022/09/01 03:03:20;;;;;;;2.90;2.60;;;11.60;99.90;;;;;;5053593;28;20045;-72
2022/09/01 03:05:47;;;;;;;3.60;2.70;;;11.60;99.90;;;;;;5067094;28;20295;-72
2022/09/01 03:08:15;;;;;;;7.90;3.05;;;;;;;;;;5070835;28;20048;-72
2022/09/01 03:10:43;;;;;;;2.75;2.13;;;11.70;99.90;;;;;;5087475;28;20052;-72
2022/09/01 03:13:17;;;;;;;2.92;2.30;;;11.70;99.90;;;;;;5068036;28;20055;-72
2022/09/01 03:15:44;;;;;;;3.00;2.42;;;11.80;99.90;;;;;;5068206;28;20055;-72
2022/09/01 03:18:12;;;;;;;4.13;2.72;;;11.80;99.90;;;;;;5087518;28;20094;-72
2022/09/01 03:20:45;;;;;;;3.42;3.10;;;12.00;99.90;;;;;;5066463;28;20150;-72
2022/09/01 03:23:14;;;;;;;3.10;2.40;;;11.90;99.90;;;;;;5064688;28;20046;-72
2022/09/01 03:25:44;;;;;;;3.53;2.20;;;11.80;99.90;;;;;;5072723;28;20059;-72
2022/09/01 03:28:12;;;;;;;2.60;2.10;;;11.80;99.90;;;;;;5085492;28;20177;-72
2022/09/01 03:30:42;;;;;;;3.55;2.45;;;11.70;99.90;;;;;;5085110;28;20134;-72
2022/09/01 03:33:08;;;;;;;4.93;2.78;;;11.80;99.90;;;;;;5067713;28;20052;-72
2022/09/01 03:35:34;;;;;;;4.63;2.70;;;11.70;99.90;;;;;;5068306;28;20037;-72
2022/09/01 03:38:01;;;;;;;2.90;2.60;;;11.80;99.90;;;;;;5076027;28;20060;-72
2022/09/01 03:40:31;;;;;;;3.85;2.72;;;11.80;99.90;;;;;;5053277;28;20048;-72
2022/09/01 03:43:01;;;;;;;;;;;11.90;99.90;;;;;;5068758;28;20040;-72
2022/09/01 03:45:28;;;;;;;3.00;2.70;;;11.80;99.90;;;;;;5071101;28;19943;-72
2022/09/01 03:47:55;;;;;;;3.35;2.72;;;11.90;99.90;;;;;;5067750;28;20059;-72
2022/09/01 03:50:23;;;;;;;3.05;2.15;;;11.80;99.90;;;;;;5068870;28;20056;-72
2022/09/01 03:52:51;;;;;;;5.18;2.35;;;11.80;99.90;;;;;;5063472;28;20051;-72
2022/09/01 03:55:22;;;;;;;4.35;2.95;;;11.70;99.90;;;;;;5072152;28;20245;-72
2022/09/01 03:57:52;;;;;;;3.53;2.72;;;11.70;99.90;;;;;;5068502;28;20167;-72
2022/09/01 04:00:21;;;;;;;3.33;2.50;;;11.70;99.90;;;;;;5072111;28;20056;-72
2022/09/01 04:02:50;;;;;;;3.47;2.60;;;11.70;99.90;;;;;;5086031;28;20040;-72
2022/09/01 04:05:27;;;;;;;4.15;2.63;;;11.80;99.90;;;;;;5062371;28;20044;-72
2022/09/01 04:07:55;;;;;;;3.92;2.38;;;11.90;99.90;;;;;;5067895;28;20044;-72
2022/09/01 04:10:21;;;;;;;5.25;2.85;;;11.90;99.90;;;;;;5070963;28;20079;-72
2022/09/01 04:12:48;;;;;;;3.75;2.53;;;12.00;99.90;;;;;;5077068;28;20096;-72
2022/09/01 04:15:15;;;;;;;2.65;2.30;;;12.00;99.90;;;;;;5069477;28;20040;-72
2022/09/01 04:20:27;;;;;;;4.22;2.55;;;12.10;99.90;;;;;;5067095;28;20056;-72
2022/09/01 04:22:54;;;;;;;3.97;2.60;;;12.10;99.90;;;;;;5079508;28;20130;-72
2022/09/01 04:25:26;;;;;;;3.45;2.40;;;12.20;99.90;;;;;;5090163;28;20044;-72
2022/09/01 04:27:55;;;;;;;4.55;2.92;;;12.20;99.90;;;;;;5091127;28;20056;-72
2022/09/01 04:30:25;;;;;;;4.43;2.63;;;12.20;99.90;;;;;;5069432;28;20062;-72
2022/09/01 04:32:54;;;;;;;4.03;2.60;;;12.20;99.90;;;;;;5067983;28;20048;-72
2022/09/01 04:35:31;;;;;;;6.17;2.50;;;12.30;99.90;;;;;;5061482;28;20205;-72
2022/09/01 04:38:00;;;;;;;8.27;2.97;;;12.30;99.90;;;;;;5085902;28;20036;-74
2022/09/01 04:40:26;;;;;;;7.70;3.00;;;12.40;99.90;;;;;;5065613;28;20550;-68
2022/09/01 04:42:52;;;;;;;5.80;4.65;;;12.10;99.90;;;;;;5002370;28;20040;-74
2022/09/01 04:45:23;;;;;;;3.63;3.00;;;;;;;;;;5038383;28;20094;-74
2022/09/01 04:47:51;;;;;;;6.13;3.42;;;12.40;99.90;;;;;;5051169;28;20041;-73
2022/09/01 04:50:17;;;;;;;5.70;2.80;;;12.30;99.90;;;;;;5063198;28;20562;-74
2022/09/01 04:52:49;;;;;;;4.28;2.80;;;12.40;99.90;;;;;;5075662;28;20089;-73
2022/09/01 04:55:19;;;;;;;4.15;2.63;;;;;;;;;;5034790;28;20091;-71
2022/09/01 04:57:48;;;;;;;3.80;2.50;;;12.40;99.90;;;;;;5082284;28;20048;-73
2022/09/01 05:00:21;;;;;;;4.57;2.42;;;12.40;99.90;;;;;;5048885;28;20052;-71
2022/09/01 05:03:02;;;;;;;3.25;2.83;;;12.30;99.90;;;;;;5041492;28;20044;-72
2022/09/01 05:05:38;;;;;;;2.83;2.45;;;12.20;99.90;;;;;;5031852;28;20045;-72
2022/09/01 05:08:05;;;;;;;4.30;2.75;;;12.20;99.90;;;;;;5064912;28;20056;-71
2022/09/01 05:10:33;;;;;;;5.25;2.55;;;12.30;99.90;;;;;;5046794;28;20672;-73
2022/09/01 05:13:00;;;;;;;4.22;2.53;;;12.20;99.90;;;;;;5065172;28;20133;-73
2022/09/01 05:15:25;;;;;;;5.18;2.78;;;12.20;99.90;;;;;;5031083;28;20109;-73
2022/09/01 05:17:57;;;;;;;4.40;2.50;;;12.20;99.90;;;;;;5044554;28;20044;-74
2022/09/01 05:20:23;;;;;;;4.35;2.60;;;12.30;99.90;;;;;;5048951;28;20052;-76
2022/09/01 05:22:49;;;;;;;4.13;2.45;;;12.30;99.90;;;;;;5051982;28;20040;-74
2022/09/01 05:25:15;;;;;;;3.78;2.50;;;12.30;99.90;;;;;;5057612;28;20568;-70
2022/09/01 05:27:48;;;;;;;3.35;2.80;;;12.20;99.90;;;;;;5083230;28;20040;-76
2022/09/01 05:30:16;;;;;;;4.35;2.80;;;12.30;99.90;;;;;;5056149;28;20044;-74
2022/09/01 05:32:42;;;;;;;3.58;2.85;;;12.40;99.90;;;;;;5048360;28;20118;-74
2022/09/01 05:35:08;;;;;;;3.35;2.60;;;12.30;99.90;;;;;;5048032;28;20052;-74
2022/09/01 05:37:37;;;;;;;5.32;3.50;;;12.40;99.90;;;;;;5047320;28;20054;-75
2022/09/01 05:40:16;;;;;;;6.13;3.78;;;12.50;99.90;;;;;;5034362;28;20044;-74
2022/09/01 05:42:43;;;;;;;3.90;2.87;;;12.60;99.90;;;;;;5050587;28;20471;-74
2022/09/01 05:45:10;;;;;;;4.70;2.90;;;12.60;99.90;;;;;;5043233;28;20316;-74
2022/09/01 05:47:38;;;;;;;5.78;3.00;;;12.70;99.90;;;;;;5073973;28;20098;-74
2022/09/01 05:50:04;;;;;;;4.88;3.20;;;12.70;99.90;;;;;;5030533;28;20239;-74
2022/09/01 05:52:36;;;;;;;4.25;2.88;;;12.70;99.90;;;;;;5045441;28;20112;-74
2022/09/01 05:55:03;;;;;;;4.28;2.90;;;12.80;99.90;;;;;;5055414;28;20822;-74
2022/09/01 05:57:28;;;;;;;3.05;2.70;;;12.80;99.90;;;;;;5058275;28;20041;-76
2022/09/01 05:59:54;;;;;;;5.28;3.10;;;12.80;99.90;;;;;;5041802;28;20085;-75
2022/09/01 06:02:22;;;;;;;4.70;3.30;;;12.80;99.90;;;;;;5054411;28;20059;-76
2022/09/01 06:04:55;;;;;;;5.72;3.53;;;12.90;99.90;;;;;;5040220;28;20052;-76
2022/09/01 06:07:22;;;;;;;5.40;3.47;;;13.00;99.90;;;;;;5057828;28;20288;-76
2022/09/01 06:09:48;;;;;;;5.53;3.25;;;13.00;99.90;;;;;;5038043;28;20056;-76
2022/09/01 06:12:19;;;;;;;4.22;3.63;;;13.10;99.90;;;;;;5070356;28;20040;-76
2022/09/01 06:14:49;;;;;;;5.13;3.45;;;13.20;99.90;;;;;;5052439;28;20161;-77
2022/09/01 06:17:18;;;;;;;5.55;3.45;;;13.30;99.90;;;;;;5062132;28;20063;-82
2022/09/01 06:19:44;;;;;;;6.43;3.72;;;13.30;99.90;;;;;;5047170;28;20262;-74
2022/09/01 06:22:10;;;;;;;3.92;3.50;;;13.40;99.90;;;;;;5081104;28;20033;-75
2022/09/01 06:24:38;;;;;;;4.63;3.60;;;13.50;99.90;;;;;;5052564;28;20489;-74
2022/09/01 06:27:07;;;;;;;4.97;3.75;;;13.50;99.90;;;;;;5068053;28;20032;-74
2022/09/01 06:29:34;;;;;;;6.37;3.83;;;13.60;99.90;;;;;;5067479;28;20486;-75
2022/09/01 06:32:01;;;;;;;4.70;3.50;;;13.70;99.90;;;;;;5059722;28;20208;-74
2022/09/01 06:34:27;;;;;;;5.55;4.03;;;13.70;99.90;;;;;;5052129;28;20060;-73
2022/09/01 06:36:53;;;;;;;8.10;3.75;;;13.80;99.90;;;;;;5077579;28;20745;-74
2022/09/01 06:39:18;;;;;;;7.50;3.75;;;13.90;99.90;;;;;;5068718;28;20162;-73
2022/09/01 06:41:51;;;;;;;6.88;4.20;;;14.00;99.90;;;;;;5051620;28;20057;-74
2022/09/01 06:44:21;;;;;;;5.30;3.72;;;14.10;99.90;;;;;;5068920;28;20056;-74
2022/09/01 06:46:48;;;;;;;4.68;3.47;;;14.10;99.90;;;;;;5077475;28;20040;-73
2022/09/01 06:49:14;;;;;;;8.40;3.65;;;14.20;99.90;;;;;;5052692;28;20509;-74
2022/09/01 06:51:40;;;;;;;5.90;3.60;;;14.30;99.90;;;;;;5078204;28;20049;-74
2022/09/01 06:54:06;;;;;;;5.28;3.60;;;14.40;99.90;;;;;;5051416;28;20100;-74
2022/09/01 06:56:32;;;;;;;7.13;2.80;;;14.40;99.90;;;;;;5085528;28;20064;-74
2022/09/01 06:59:02;;;;;;;6.50;3.47;;;14.50;99.90;;;;;;5068063;28;20044;-75
2022/09/01 07:01:29;;;;;;;;;;;14.50;99.90;;;;;;5032369;28;20055;-74
2022/09/01 07:03:58;;;;;;;5.00;3.08;;;14.60;99.90;;;;;;5056367;28;19936;-74
2022/09/01 07:06:26;;;;;;;4.18;3.42;;;14.60;99.90;;;;;;5048717;28;20045;-74
2022/09/01 07:09:00;;;;;;;6.20;3.13;;;14.70;99.90;;;;;;5060017;28;20075;-74
2022/09/01 07:11:29;;;;;;;5.60;3.13;;;14.80;99.90;;;;;;5020709;28;20056;-74
2022/09/01 07:14:02;;;;;;;5.47;3.30;;;14.90;99.90;;;;;;5059761;28;20048;-74
2022/09/01 07:16:32;;;;;;;5.30;3.10;;;15.00;99.90;;;;;;5033744;28;20524;-74
2022/09/01 07:19:00;;;;;;;5.63;3.03;;;15.20;99.90;;;;;;5063124;28;20044;-74
2022/09/01 07:21:27;;;;;;;3.60;3.28;;;15.20;99.90;;;;;;5066028;28;20109;-74
2022/09/01 07:23:54;;;;;;;6.00;3.10;;;15.20;99.90;;;;;;5081765;28;20527;-74
2022/09/01 07:26:24;;;;;;;6.90;3.78;;;15.30;99.90;;;;;;5052206;28;20044;-74
2022/09/01 07:28:51;;;;;;;5.65;3.47;;;15.40;99.90;;;;;;5052542;28;20071;-74
2022/09/01 07:31:23;;;;;;;3.88;3.47;;;15.40;99.90;;;;;;5066427;28;20391;-74
2022/09/01 07:33:50;;;;;;;4.28;3.40;;;15.50;99.90;;;;;;5059650;28;20056;-74
2022/09/01 07:36:18;;;;;;;4.85;3.22;;;15.60;99.90;;;;;;5051129;28;20060;-74
2022/09/01 07:38:44;;;;;;;79.45;7.93;;;15.60;99.90;;;;;;5076993;28;20044;-74
2022/09/01 07:41:13;;;;;;;3.55;3.03;;;15.80;99.90;;;;;;5055408;28;20440;-74
2022/09/01 07:43:43;;;;;;;4.07;3.10;;;15.80;99.90;;;;;;5033580;28;20057;-74
2022/09/01 07:46:10;;;;;;;6.00;3.15;;;15.90;99.90;;;;;;5049875;28;20151;-74
2022/09/01 07:48:37;;;;;;;5.20;2.85;;;15.90;99.90;;;;;;5060381;28;20428;-74
2022/09/01 07:51:03;;;;;;;6.35;3.35;;;16.00;99.90;;;;;;5055536;28;20045;-74
2022/09/01 07:53:32;;;;;;;5.18;2.67;;;16.00;99.90;;;;;;5064259;28;20048;-74
2022/09/01 07:56:06;;;;;;;3.80;3.40;;;16.10;99.90;;;;;;5053164;28;20056;-73
2022/09/01 07:58:32;;;;;;;4.75;2.80;;;16.10;99.90;;;;;;5058154;28;20044;-73
2022/09/01 08:01:01;;;;;;;3.63;3.33;;;16.20;99.90;;;;;;5040714;28;20151;-73
2022/09/01 08:03:29;;;;;;;5.97;3.55;;;16.30;99.90;;;;;;5039926;28;20044;-72
2022/09/01 08:05:59;;;;;;;4.28;3.40;;;16.30;99.90;;;;;;5020310;28;20239;-73
2022/09/01 08:08:26;;;;;;;3.75;2.72;;;16.40;99.90;;;;;;5035352;28;20095;-73
2022/09/01 08:10:52;;;;;;;5.15;3.35;;;16.50;99.90;;;;;;5035817;28;20129;-73
2022/09/01 08:13:18;;;;;;;5.40;3.35;;;16.50;99.90;;;;;;5038997;28;20060;-73
2022/09/01 08:15:44;;;;;;;3.83;3.22;;;16.60;99.90;;;;;;5025197;28;20048;-73
2022/09/01 08:18:11;;;;;;;3.22;2.92;;;16.70;99.90;;;;;;5045676;28;20040;-73
2022/09/01 08:20:44;;;;;;;5.93;3.35;;;16.70;99.90;;;;;;5024156;28;20147;-73
2022/09/01 08:23:11;;;;;;;9.02;3.75;;;16.80;99.90;;;;;;5034797;28;20087;-72
2022/09/01 08:25:37;;;;;;;5.28;3.25;;;16.90;99.90;;;;;;5043672;28;20064;-74
2022/09/01 08:28:04;;;;;;;4.03;2.67;;;17.00;99.90;;;;;;5057808;28;20052;-73
2022/09/01 08:30:34;;;;;;;4.53;3.15;;;17.10;99.90;;;;;;5031111;28;20388;-73
2022/09/01 08:33:00;;;;;;;5.15;3.42;;;17.10;99.90;;;;;;5054678;28;20040;-73
2022/09/01 08:35:28;;;;;;;3.70;2.80;;;17.20;99.90;;;;;;5034763;28;20052;-73
2022/09/01 08:37:54;;;;;;;9.65;2.70;;;17.20;99.90;;;;;;5055506;28;20067;-73
2022/09/01 08:40:22;;;;;;;6.80;2.50;;;17.30;99.90;;;;;;5047417;28;20202;-74
2022/09/01 08:43:05;;;;;;;3.45;2.50;;;17.40;99.90;;;;;;5045597;28;20049;-73
2022/09/01 08:45:37;;;;;;;4.20;2.30;;;17.50;99.90;;;;;;5039492;28;20053;-73
2022/09/01 08:48:24;;;;;;;5.18;2.83;;;17.50;99.90;;;;;;5038360;28;20040;-72
2022/09/01 08:51:02;;;;;;;5.15;3.28;;;17.80;99.90;;;;;;5049612;28;20045;-73
2022/09/01 08:53:37;;;;;;;4.18;2.70;;;17.90;99.90;;;;;;5037580;28;20036;-73
2022/09/01 08:56:03;;;;;;;4.90;2.63;;;17.90;99.90;;;;;;5028623;28;20048;-73
2022/09/01 08:58:30;;;;;;;12.13;3.28;;;17.90;99.90;;;;;;5038155;28;20517;-73
2022/09/01 09:01:07;;;;;;;4.22;2.10;;;18.00;99.90;;;;;;5029945;28;20080;-74
2022/09/01 09:03:46;;;;;;;4.57;2.35;;;18.00;99.90;;;;;;5052698;28;20057;-73
2022/09/01 09:06:16;;;;;;;;;;;18.10;99.90;;;;;;5044433;28;20079;-74
2022/09/01 09:08:51;;;;;;;4.30;2.03;;;18.20;99.90;;;;;;5039720;28;19931;-73
2022/09/01 09:11:47;;;;;;;6.03;2.30;;;18.40;99.90;;;;;;5030496;28;20406;-73
2022/09/01 09:14:28;;;;;;;3.60;1.80;;;18.60;99.90;;;;;;5044324;28;20037;-73
2022/09/01 09:16:55;;;;;;;4.93;2.08;;;18.60;99.90;;;;;;5009052;28;20053;-73
2022/09/01 09:19:35;;;;;;;4.03;1.65;;;18.80;99.90;;;;;;5047984;28;20080;-73
2022/09/01 09:22:05;;;;;;;3.13;1.80;;;18.80;99.90;;;;;;5034138;28;20125;-73
2022/09/01 09:24:54;;;;;;;6.15;1.90;;;18.80;99.90;;;;;;5030261;28;20041;-73
2022/09/01 09:27:33;;;;;;;2.70;2.05;;;18.90;99.90;;;;;;5000028;28;20058;-73
2022/09/01 09:30:02;;;;;;;2.20;1.80;;;19.00;99.90;;;;;;5013297;28;20052;-73
2022/09/01 09:32:49;;;;;;;2.72;1.70;;;19.00;99.90;;;;;;5034506;28;20142;-73
2022/09/01 09:35:32;;;;;;;3.53;1.80;;;19.10;99.90;;;;;;5031510;28;20086;-73
2022/09/01 09:38:27;;;;;;;2.90;1.98;;;19.10;99.90;;;;;;5039151;28;20060;-72
2022/09/01 09:41:00;;;;;;;4.88;1.33;;;19.30;99.90;;;;;;5029160;28;20057;-72
2022/09/01 09:43:28;;;;;;;2.10;1.55;;;19.40;99.90;;;;;;5009453;28;20045;-72
2022/09/01 09:46:39;;;;;;;3.47;1.65;;;19.40;99.90;;;;;;5023068;28;20061;-72
2022/09/01 09:49:24;;;;;;;4.45;1.70;;;19.50;99.90;;;;;;5047168;28;20040;-73
2022/09/01 09:51:57;;;;;;;1.42;1.33;;;19.50;99.90;;;;;;5011507;28;20517;-72
2022/09/01 09:54:31;;;;;;;3.70;1.63;;;19.60;99.90;;;;;;5053903;28;20101;-72
2022/09/01 09:57:08;;;;;;;3.55;1.70;;;19.70;99.90;;;;;;5022768;28;20060;-72
2022/09/01 09:59:56;;;;;;;3.80;1.25;;;19.70;99.90;;;;;;5045901;28;20095;-72
2022/09/01 10:02:34;;;;;;;2.22;1.30;;;19.80;99.90;;;;;;5042655;28;20048;-72
2022/09/01 10:05:19;;;;;;;3.65;1.50;;;19.90;99.90;;;;;;5084048;28;20061;-73
2022/09/01 10:07:45;;;;;;;5.05;1.42;;;20.10;99.90;;;;;;5077830;28;20055;-75
2022/09/01 10:10:32;;;;;;;3.55;1.50;;;20.20;99.90;;;;;;5069577;28;20147;-73
2022/09/01 10:12:59;;;;;;;4.13;1.30;;;20.30;99.90;;;;;;5092102;28;20070;-73
2022/09/01 10:15:29;;;;;;;3.35;1.30;;;20.40;99.90;;;;;;5075238;28;20072;-72
2022/09/01 10:18:00;;;;;;;3.95;1.25;;;20.40;99.90;;;;;;5069482;28;20253;-72
2022/09/01 10:20:27;;;;;;;3.60;1.50;;;20.50;99.90;;;;;;5061322;28;20091;-72
2022/09/01 10:22:53;;;;;;;1.48;1.25;;;20.60;99.90;;;;;;5066056;28;20557;-72
2022/09/01 10:25:25;;;;;;;2.30;1.60;;;20.60;99.90;;;;;;5054075;28;20115;-72
2022/09/01 10:28:00;;;;;;;3.92;1.23;;;20.60;99.90;;;;;;5077529;28;20055;-73
2022/09/01 10:30:29;;;;;;;3.40;1.50;;;20.80;99.80;;;;;;5067082;28;20116;-73
2022/09/01 10:32:59;;;;;;;2.97;1.50;;;20.90;99.90;;;;;;5079367;28;20055;-74
2022/09/01 10:35:30;;;;;;;3.70;1.55;;;20.90;99.30;;;;;;5063470;28;20425;-70
2022/09/01 10:37:59;;;;;;;3.90;1.60;;;20.80;99.50;;;;;;5082354;28;20028;-72
2022/09/01 10:40:28;;;;;;;6.25;1.70;;;20.80;99.80;;;;;;5070240;28;20071;-72
2022/09/01 10:42:56;;;;;;;2.85;1.17;;;20.80;99.70;;;;;;5067390;28;20045;-72
2022/09/01 10:45:35;;;;;;;2.20;1.30;;;20.70;99.00;;;;;;5073245;28;20074;-72
2022/09/01 10:48:19;;;;;;;1.95;1.52;;;20.80;98.40;;;;;;5077397;28;20056;-72
2022/09/01 10:51:11;;;;;;;1.85;1.30;;;20.80;98.40;;;;;;5069618;28;20055;-72
2022/09/01 10:53:40;;;;;;;2.13;1.30;;;20.80;98.70;;;;;;5053802;28;20080;-72
2022/09/01 10:56:14;;;;;;;2.33;1.48;;;20.90;98.70;;;;;;5052506;28;20073;-71
2022/09/01 10:58:52;;;;;;;1.85;1.50;;;21.00;98.20;;;;;;5072767;28;20519;-72
2022/09/01 11:01:43;;;;;;;3.22;1.63;;;21.10;98.30;;;;;;5070146;28;20075;-72
2022/09/01 11:04:28;;;;;;;1.80;1.52;;;21.20;97.80;;;;;;5092631;28;20043;-72
2022/09/01 11:07:03;;;;;;;2.67;1.65;;;21.30;97.60;;;;;;5048449;28;20067;-72
2022/09/01 11:10:02;;;;;;;2.78;1.88;;;21.20;97.70;;;;;;5072073;28;20104;-71
2022/09/01 11:12:42;;;;;;;1.88;1.38;;;21.20;97.80;;;;;;5050832;28;20048;-72
2022/09/01 11:15:14;;;;;;;2.80;1.10;;;21.10;97.90;;;;;;5085833;28;20033;-72
2022/09/01 11:17:52;;;;;;;1.85;1.10;;;21.00;97.70;;;;;;5077234;28;20079;-72
2022/09/01 11:20:28;;;;;;;2.53;1.40;;;21.00;98.00;;;;;;5066427;28;20521;-72
2022/09/01 11:23:22;;;;;;;2.70;1.30;;;21.00;98.60;;;;;;5065678;28;20052;-72
2022/09/01 11:25:50;;;;;;;1.75;1.30;;;21.30;98.00;;;;;;5064836;28;20139;-72
2022/09/01 11:28:21;;;;;;;6.40;1.75;;;21.40;97.50;;;;;;5076827;28;20469;-73
2022/09/01 11:31:09;;;;;;;4.70;1.75;;;21.40;97.70;;;;;;5067619;28;20052;-72
2022/09/01 11:33:54;;;;;;;2.95;1.10;;;21.40;96.70;;;;;;5071083;28;20467;-72
2022/09/01 11:36:50;;;;;;;5.15;1.40;;;21.50;97.10;;;;;;5070613;28;20138;-73
2022/09/01 11:39:20;;;;;;;2.33;1.63;;;21.50;96.40;;;;;;5095176;28;20079;-72
2022/09/01 11:41:53;;;;;;;2.92;1.40;;;21.50;97.20;;;;;;5054984;28;20080;-72
2022/09/01 11:44:24;;;;;;;6.80;1.75;;;21.70;97.30;;;;;;5055835;28;20055;-72
2022/09/01 11:46:51;;;;;;;7.38;1.80;;;21.80;96.90;;;;;;5051528;28;20392;-72
2022/09/01 11:49:31;;;;;;;6.47;1.77;;;22.00;96.40;;;;;;5076372;28;20050;-72
2022/09/01 11:51:59;;;;;;;6.32;2.33;;;22.10;96.50;;;;;;5045092;28;20049;-72
2022/09/01 11:54:26;;;;;;;2.75;1.50;;;22.10;96.80;;;;;;5075688;28;20036;-72
2022/09/01 11:56:52;;;;;;;3.03;1.40;;;22.20;96.20;;;;;;5053735;28;20118;-72
2022/09/01 11:59:37;;;;;;;1.50;0.98;;;22.20;96.00;;;;;;5060333;28;20036;-72
2022/09/01 12:02:03;;;;;;;1.52;1.42;;;22.20;95.50;;;;;;5068807;28;20044;-72
2022/09/01 12:04:38;;;;;;;1.30;1.20;;;22.20;95.70;;;;;;5074442;28;20049;-72
2022/09/01 12:07:12;;;;;;;3.15;1.50;;;22.40;95.60;;;;;;5042695;28;20244;-72
2022/09/01 12:09:44;;;;;;;6.07;1.52;;;22.50;95.50;;;;;;5073296;28;20052;-72
2022/09/01 12:12:35;;;;;;;1.80;1.45;;;22.60;95.50;;;;;;5035347;28;20505;-72
2022/09/01 12:15:21;;;;;;;4.53;1.10;;;22.70;95.50;;;;;;5034882;28;20231;-72
2022/09/01 12:17:47;;;;;;;3.08;1.33;;;22.80;95.30;;;;;;5051475;28;20064;-72
2022/09/01 12:20:24;;;;;;;1.98;1.27;;;22.90;94.90;;;;;;5046756;28;20060;-72
2022/09/01 12:22:50;;;;;;;2.33;1.70;;;23.00;94.10;;;;;;5045819;28;20460;-72
2022/09/01 12:25:30;;;;;;;3.17;1.50;;;23.00;93.20;;;;;;5049240;28;20048;-72
2022/09/01 12:28:02;;;;;;;1.88;1.63;;;23.00;93.50;;;;;;5067752;28;20068;-73
2022/09/01 12:30:29;;;;;;;2.80;0.90;;;23.10;93.40;;;;;;5048882;28;20049;-72
2022/09/01 12:32:57;;;;;;;2.20;1.10;;;23.10;93.30;;;;;;5076070;28;20045;-73
2022/09/01 12:35:25;;;;;;;3.78;0.93;;;23.10;93.20;;;;;;5053305;28;20087;-72
2022/09/01 12:37:51;;;;;;;2.13;1.10;;;23.20;93.80;;;;;;5098026;28;20040;-72
2022/09/01 12:40:44;;;;;;;2.60;1.10;;;23.30;93.50;;;;;;5047894;28;20044;-72
2022/09/01 12:43:10;;;;;;;1.95;1.27;;;23.50;92.80;;;;;;5078326;28;20057;-72
2022/09/01 12:45:45;;;;;;;1.80;1.30;;;23.70;92.60;;;;;;5067476;28;20052;-71
2022/09/01 12:48:29;;;;;;;3.35;1.48;;;23.90;92.50;;;;;;5059187;28;22981;-72
2022/09/01 12:50:58;;;;;;;2.75;1.20;;;23.90;91.90;;;;;;5063867;28;20048;-70
2022/09/01 12:53:27;;;;;;;3.10;1.30;;;24.00;92.30;;;;;;5083036;28;20072;-71
2022/09/01 12:56:05;;;;;;;1.65;1.10;;;24.10;91.80;;;;;;5046814;28;20066;-71
2022/09/01 12:58:31;;;;;;;2.47;1.17;;;24.10;90.30;;;;;;5076615;28;20059;-72
2022/09/01 13:01:04;;;;;;;1.95;1.33;;;24.30;90.80;;;;;;5070209;28;20044;-72
2022/09/01 13:03:31;;;;;;;2.38;1.27;;;24.40;91.30;;;;;;5052129;28;20056;-72
2022/09/01 13:05:59;;;;;;;3.65;1.60;;;24.50;91.10;;;;;;5050920;28;20056;-71
2022/09/01 13:08:31;;;;;;;2.75;1.58;;;24.60;91.20;;;;;;5034093;28;20040;-72
2022/09/01 13:11:09;;;;;;;2.67;1.60;;;24.60;90.10;;;;;;5045828;28;20369;-72
2022/09/01 13:13:35;;;;;;;1.95;1.08;;;24.70;87.20;;;;;;5047387;28;20052;-72
2022/09/01 13:16:09;;;;;;;1.83;0.85;;;24.90;88.70;;;;;;5045678;28;20055;-72